Paracuellos de Jarama, Spain
Current Conditions -  °F | °C
As of 6:30 AM on Friday 31 Oct 2014 (Local Time) from LEMD Reporting Station
Clear Clear  
Wind Chill: 48°   Ceiling: Unl
Heat Index: 48°   Visibility: 6mi
Dew Point: 43°   Wind: 3mph
Humidity: 82%   Direction: 340°NNW
Pressure: 30.24"   Gusts: NA
Location:  40.5°N, 3.53°W
Report Text: LEMD 310530Z 34003KT 320V020 CAVOK 09/06 Q1024 NOSIG
Loading
Personal Weather Stations






























Interactive Weather Map
Tropical Storm Tracking
New forecast layout! Learn more

10-Day Weather Forecast

Advertisements
Track Severe Weather on mobile